Time;durP1;ratioP1;P1;durP2;ratioP2;P2;SDS_P1;SDS_P2;PMS_P1;PMS_P2;Temp;Humidity;BMP_temperature;BMP_pressure;BME280_temperature;BME280_humidity;BME280_pressure;Samples;Min_cycle;Max_cycle;Signal;HPM_P1;HPM_P2
2021/04/24 00:00:33;;;;;;;4.35;1.65;;;;;;;6.92;45.59;101722.28;5044280;28;20049;-74
2021/04/24 00:03:00;;;;;;;6.70;2.08;;;;;;;6.82;45.97;101724.28;5020572;28;20091;-77
2021/04/24 00:05:31;;;;;;;5.30;1.35;;;;;;;6.72;46.15;101725.41;5027126;28;20109;-76
2021/04/24 00:08:04;;;;;;;6.43;1.77;;;;;;;6.71;46.61;101723.69;5041828;28;20132;-77
2021/04/24 00:10:32;;;;;;;7.65;1.52;;;;;;;6.47;46.65;101721.69;5022241;28;20115;-78
2021/04/24 00:12:59;;;;;;;2.50;1.00;;;;;;;6.55;46.50;101723.22;5016351;28;20180;-78
2021/04/24 00:15:26;;;;;;;7.65;1.83;;;;;;;6.59;49.71;101710.91;5023216;28;20076;-77
2021/04/24 00:17:53;;;;;;;5.72;1.60;;;;;;;6.85;46.06;101724.19;5021382;28;20079;-77
2021/04/24 00:20:22;;;;;;;3.85;1.20;;;;;;;6.82;46.34;101723.41;4995741;28;20070;-76
2021/04/24 00:22:50;;;;;;;6.38;1.23;;;;;;;6.69;45.79;101716.78;5011560;28;20095;-77
2021/04/24 00:25:17;;;;;;;3.60;1.30;;;;;;;6.64;46.56;101716.03;5014604;28;20086;-75
2021/04/24 00:27:44;;;;;;;4.57;1.42;;;;;;;6.69;47.04;101712.41;5024931;28;20106;-77
2021/04/24 00:30:12;;;;;;;8.57;1.80;;;;;;;6.66;47.59;101711.59;5016299;28;20049;-78
2021/04/24 00:32:39;;;;;;;5.70;1.88;;;;;;;6.71;49.02;101715.84;5032615;28;20049;-76
2021/04/24 00:35:07;;;;;;;11.30;2.10;;;;;;;6.80;51.81;101712.16;5030539;28;20136;-78
2021/04/24 00:37:34;;;;;;;9.27;2.90;;;;;;;6.73;53.77;101710.56;5001514;28;20053;-78
2021/04/24 00:40:02;;;;;;;7.93;2.60;;;;;;;6.53;56.56;101706.72;5045042;28;20053;-78
2021/04/24 00:42:29;;;;;;;10.88;2.83;;;;;;;6.47;57.67;101712.06;5025828;28;20131;-77
2021/04/24 00:44:56;;;;;;;12.55;2.72;;;;;;;6.38;58.10;101708.81;5028442;28;20122;-78
2021/04/24 00:47:24;;;;;;;13.27;3.03;;;;;;;6.36;58.22;101708.88;5015390;28;20552;-78
2021/04/24 00:49:51;;;;;;;9.80;3.25;;;;;;;6.34;58.64;101711.50;5025951;28;20459;-77
2021/04/24 00:52:18;;;;;;;12.75;3.03;;;;;;;6.28;59.14;101714.28;5014834;28;20103;-77
2021/04/24 00:54:45;;;;;;;15.73;3.60;;;;;;;6.22;59.27;101706.59;5027389;28;20135;-77
2021/04/24 00:57:12;;;;;;;18.02;2.83;;;;;;;6.13;60.76;101706.81;5006845;28;20115;-78
2021/04/24 00:59:40;;;;;;;12.30;3.20;;;;;;;6.11;61.01;101705.09;5026958;28;20083;-78
2021/04/24 01:02:08;;;;;;;14.40;3.63;;;;;;;5.98;61.62;101707.13;5018077;28;20106;-78
2021/04/24 01:04:35;;;;;;;20.17;3.67;;;;;;;5.96;62.24;101703.72;5031462;28;20101;-80
2021/04/24 01:07:05;;;;;;;16.42;3.58;;;;;;;5.92;61.94;101700.28;5028105;28;20057;-78
2021/04/24 01:09:32;;;;;;;22.42;3.83;;;;;;;5.92;62.23;101702.06;5004100;28;20054;-77
2021/04/24 01:11:59;;;;;;;11.25;3.35;;;;;;;5.82;63.31;101703.97;5039026;28;20061;-78
2021/04/24 01:14:26;;;;;;;8.93;2.65;;;;;;;5.72;64.05;101695.50;5021275;28;20439;-77
2021/04/24 01:16:54;;;;;;;12.20;3.08;;;;;;;5.61;64.34;101705.28;5028495;28;20071;-78
2021/04/24 01:19:23;;;;;;;13.77;3.38;;;;;;;5.71;64.53;101700.72;5039607;28;20050;-79
2021/04/24 01:21:51;;;;;;;15.82;4.25;;;;;;;5.52;65.58;101700.25;5036368;28;20041;-78
2021/04/24 01:24:19;;;;;;;13.27;3.05;;;;;;;5.66;64.75;101697.34;5012758;28;20148;-77
2021/04/24 01:26:47;;;;;;;13.38;3.25;;;;;;;5.64;65.40;101702.63;5040703;28;20535;-76
2021/04/24 01:29:14;;;;;;;12.77;4.22;;;;;;;5.56;65.51;101702.78;5029978;28;20056;-79
2021/04/24 01:31:40;;;;;;;19.40;5.50;;;;;;;5.52;65.99;101698.50;5035200;28;20055;-77
2021/04/24 01:34:08;;;;;;;15.55;4.22;;;;;;;5.52;66.74;101700.25;5028365;28;20084;-77
2021/04/24 01:36:35;;;;;;;15.27;3.85;;;;;;;5.46;67.54;101698.66;5007025;28;20056;-78
2021/04/24 01:39:05;;;;;;;16.50;3.63;;;;;;;5.39;68.28;101704.00;5003832;28;20426;-78
2021/04/24 01:41:32;;;;;;;15.07;4.00;;;;;;;5.31;68.46;101698.94;5027474;28;20049;-75
2021/04/24 01:43:59;;;;;;;14.05;4.18;;;;;;;5.18;69.96;101702.69;5006203;28;20693;-77
2021/04/24 01:46:26;;;;;;;12.70;4.38;;;;;;;5.15;70.39;101705.38;5013143;28;20057;-78
2021/04/24 01:48:53;;;;;;;10.70;3.53;;;;;;;5.18;69.85;101698.34;5016247;28;20083;-78
2021/04/24 01:51:20;;;;;;;15.57;4.40;;;;;;;5.19;70.68;101699.19;5005314;28;20076;-79
2021/04/24 01:53:48;;;;;;;13.02;3.78;;;;;;;5.14;70.64;101701.91;5025730;28;20144;-78
2021/04/24 01:56:53;;;;;;;19.67;3.97;;;;;;;5.24;70.96;101694.75;5027785;28;20090;-77
2021/04/24 01:59:24;;;;;;;15.93;4.05;;;;;;;5.18;71.25;101693.13;5023951;28;20061;-81
2021/04/24 02:01:53;;;;;;;13.35;3.45;;;;;;;5.10;71.13;101692.41;5041608;28;20037;-78
2021/04/24 02:04:22;;;;;;;11.88;3.63;;;;;;;5.11;71.85;101691.50;5020022;28;20053;-78
2021/04/24 02:06:48;;;;;;;13.77;3.92;;;;;;;5.01;72.14;101696.03;5054121;28;20057;-79
2021/04/24 02:09:17;;;;;;;16.95;4.38;;;;;;;5.03;72.71;101691.66;5024699;28;20077;-78
2021/04/24 02:12:11;;;;;;;12.77;4.00;;;;;;;4.90;72.58;101692.75;5005201;28;20129;-78
2021/04/24 02:14:42;;;;;;;11.25;3.85;;;;;;;4.83;72.36;101699.00;5015808;28;20061;-79
2021/04/24 02:17:11;;;;;;;15.70;4.22;;;;;;;4.88;73.16;101693.69;5032029;28;20533;-81
2021/04/24 02:19:42;;;;;;;15.27;4.60;;;;;;;4.77;73.95;101699.09;5012286;28;20041;-79
2021/04/24 02:22:10;;;;;;;17.50;4.57;;;;;;;4.70;74.41;101700.09;5052143;28;20094;-79
2021/04/24 02:24:45;;;;;;;15.60;4.45;;;;;;;4.77;74.54;101706.91;5033806;28;20057;-79
2021/04/24 02:27:12;;;;;;;14.23;4.30;;;;;;;4.81;74.67;101688.56;5011820;28;20049;-78
2021/04/24 02:29:42;;;;;;;16.48;5.03;;;;;;;4.73;74.94;101692.22;5025777;28;20057;-78
2021/04/24 02:32:10;;;;;;;13.18;4.47;;;;;;;4.73;74.98;101687.88;5011796;28;20622;-77
2021/04/24 02:34:39;;;;;;;12.88;4.60;;;;;;;4.63;75.68;101688.91;5010692;28;20133;-79
2021/04/24 02:37:07;;;;;;;12.23;4.55;;;;;;;4.63;74.93;101694.09;5021498;28;20067;-78
2021/04/24 02:39:37;;;;;;;14.52;4.95;;;;;;;4.62;75.17;101691.53;5022174;28;20388;-78
2021/04/24 02:42:05;;;;;;;14.63;4.93;;;;;;;4.57;75.22;101694.22;5019436;28;20049;-79
2021/04/24 02:44:32;;;;;;;13.80;4.38;;;;;;;4.60;75.36;101688.97;5046574;28;20060;-78
2021/04/24 02:47:00;;;;;;;11.77;4.28;;;;;;;4.60;75.20;101693.31;4990582;28;20525;-78
2021/04/24 02:49:27;;;;;;;13.35;5.03;;;;;;;4.52;75.55;101691.69;5024149;28;20549;-78
2021/04/24 02:51:54;;;;;;;11.63;4.63;;;;;;;4.53;75.91;101690.81;5007018;28;20118;-78
2021/04/24 02:54:22;;;;;;;11.07;4.40;;;;;;;4.43;76.28;101691.84;5044744;28;20133;-79
2021/04/24 02:56:49;;;;;;;9.95;4.45;;;;;;;4.57;76.04;101678.56;5044141;28;20132;-80
2021/04/24 02:59:15;;;;;;;17.70;5.03;;;;;;;4.37;76.71;101684.13;5034734;28;20031;-82
2021/04/24 03:01:43;;;;;;;13.73;4.88;;;;;;;4.22;77.22;101687.84;5055234;28;20095;-83
2021/04/24 03:04:10;;;;;;;19.92;5.45;;;;;;;4.24;76.79;101682.63;5034976;28;20151;-80
2021/04/24 03:06:37;;;;;;;19.50;5.63;;;;;;;4.26;76.99;101691.25;5031346;28;20062;-78
2021/04/24 03:09:04;;;;;;;16.35;5.25;;;;;;;4.33;76.68;101690.28;5007528;28;20412;-78
2021/04/24 03:11:31;;;;;;;17.83;4.70;;;;;;;4.22;76.86;101690.44;5031172;28;20060;-80
2021/04/24 03:13:58;;;;;;;12.25;4.47;;;;;;;4.19;77.68;101685.28;5045236;28;20084;-78
2021/04/24 03:16:25;;;;;;;15.00;4.72;;;;;;;4.19;77.43;101681.84;5015629;28;20071;-78
2021/04/24 03:18:54;;;;;;;12.70;4.50;;;;;;;4.19;77.29;101687.03;5030403;28;20064;-78
2021/04/24 03:21:22;;;;;;;16.60;5.57;;;;;;;4.13;77.52;101687.13;5025030;28;20147;-79
2021/04/24 03:23:49;;;;;;;12.98;4.88;;;;;;;4.14;77.69;101684.47;5047810;28;20067;-80
2021/04/24 03:26:16;;;;;;;11.32;4.97;;;;;;;4.13;77.94;101684.50;5023229;28;20487;-77
2021/04/24 03:28:43;;;;;;;11.43;4.53;;;;;;;4.10;78.06;101679.34;5052937;28;20048;-78
2021/04/24 03:31:10;;;;;;;16.95;5.78;;;;;;;3.96;78.10;101683.03;5022881;28;20041;-77
2021/04/24 03:33:38;;;;;;;15.35;4.70;;;;;;;3.94;78.10;101682.19;5026164;28;20067;-78
2021/04/24 03:36:05;;;;;;;13.88;4.97;;;;;;;3.88;78.71;101677.06;5023180;28;20053;-78
2021/04/24 03:38:33;;;;;;;14.65;6.00;;;;;;;3.88;79.06;101671.88;5026361;28;20539;-78
2021/04/24 03:41:00;;;;;;;17.48;4.95;;;;;;;3.93;78.48;101680.47;5023264;28;20096;-79
2021/04/24 03:43:27;;;;;;;15.45;5.05;;;;;;;4.02;78.28;101674.25;5025905;28;20136;-78
2021/04/24 03:45:53;;;;;;;12.77;5.50;;;;;;;4.12;78.25;101674.97;5030928;28;20127;-79
2021/04/24 03:48:20;;;;;;;15.73;6.35;;;;;;;3.93;78.75;101679.59;5023899;28;20491;-78
2021/04/24 03:50:47;;;;;;;16.20;5.45;;;;;;;3.92;78.47;101677.91;5026069;28;20503;-79
2021/04/24 03:53:14;;;;;;;19.08;5.18;;;;;;;3.97;78.83;101679.53;5017630;28;20096;-79
2021/04/24 03:55:41;;;;;;;16.33;6.18;;;;;;;3.98;79.05;101686.47;5041217;28;20144;-77
2021/04/24 03:58:07;;;;;;;12.80;5.50;;;;;;;3.95;78.63;101683.91;5043110;28;20052;-79
2021/04/24 04:00:34;;;;;;;14.77;5.68;;;;;;;4.03;78.52;101686.41;5013574;28;20053;-79
2021/04/24 04:03:04;;;;;;;13.60;4.78;;;;;;;4.02;78.56;101684.69;5040318;28;20475;-78
2021/04/24 04:05:39;;;;;;;18.52;5.55;;;;;;;4.20;78.21;101688.75;5019452;28;20052;-76
2021/04/24 04:08:06;;;;;;;16.63;4.65;;;;;;;4.16;77.58;101689.69;5005422;28;20041;-76
2021/04/24 04:10:37;;;;;;;14.70;5.60;;;;;;;4.07;77.96;101688.06;5020033;28;20065;-75
2021/04/24 04:13:05;;;;;;;19.23;4.82;;;;;;;4.16;78.07;101684.47;5017557;28;20036;-75
2021/04/24 04:15:32;;;;;;;14.35;5.75;;;;;;;4.21;78.03;101680.91;5059168;28;20060;-75
2021/04/24 04:18:12;;;;;;;13.60;5.07;;;;;;;4.11;78.56;101687.16;5040335;28;20083;-75
2021/04/24 04:20:50;;;;;;;24.70;8.07;;;;;;;4.16;78.16;101687.09;5011806;28;20435;-76
2021/04/24 04:23:24;;;;;;;13.25;5.95;;;;;;;4.16;78.63;101693.16;5012569;28;20152;-75
2021/04/24 04:25:51;;;;;;;18.20;5.93;;;;;;;4.34;78.18;101692.00;4992848;28;20060;-75
2021/04/24 04:28:19;;;;;;;12.43;5.57;;;;;;;4.32;77.27;101694.66;5023832;28;20073;-76
2021/04/24 04:30:45;;;;;;;17.90;5.63;;;;;;;4.14;77.97;101707.94;5001643;28;20065;-76
2021/04/24 04:33:12;;;;;;;19.05;7.20;;;;;;;4.11;78.91;101702.78;5031343;28;20629;-76
2021/04/24 04:35:40;;;;;;;20.08;6.15;;;;;;;4.16;79.32;101710.53;5020858;28;20439;-76
2021/04/24 04:38:07;;;;;;;17.90;6.43;;;;;;;4.32;78.06;101710.28;5035218;28;20092;-76
2021/04/24 04:40:34;;;;;;;14.65;5.85;;;;;;;4.41;77.67;101713.59;5022858;28;20710;-76
2021/04/24 04:43:00;;;;;;;13.93;5.43;;;;;;;4.63;76.72;101714.13;5036373;28;20058;-77
2021/04/24 04:45:27;;;;;;;19.15;6.22;;;;;;;4.99;75.14;101712.59;5020131;28;20125;-76
2021/04/24 04:47:54;;;;;;;12.35;5.95;;;;;;;5.40;73.55;101708.34;5013117;28;20051;-76
2021/04/24 04:50:24;;;;;;;19.50;5.80;;;;;;;6.11;70.32;101716.41;5015998;28;20421;-79
2021/04/24 04:52:50;;;;;;;24.15;6.68;;;;;;;6.14;69.84;101712.88;5031953;28;20448;-77
2021/04/24 04:55:17;;;;;;;11.57;5.55;;;;;;;6.92;67.45;101710.94;5043498;28;20057;-79
2021/04/24 04:57:45;;;;;;;16.25;6.47;;;;;;;8.33;62.24;101715.53;5033576;28;20140;-79
2021/04/24 05:00:14;;;;;;;15.35;5.85;;;;;;;8.76;59.96;101717.66;5020697;28;20050;-79
2021/04/24 05:02:43;;;;;;;13.85;6.40;;;;;;;8.19;61.90;101713.34;5032956;28;20044;-81
2021/04/24 05:05:10;;;;;;;14.75;6.53;;;;;;;9.20;58.67;101714.38;5021792;28;20047;-79
2021/04/24 05:07:37;;;;;;;15.18;6.95;;;;;;;9.31;57.62;101714.84;5026723;28;20095;-76
2021/04/24 05:10:22;;;;;;;12.27;7.03;;;;;;;9.96;55.59;101715.94;5051021;28;20049;-82
2021/04/24 05:12:48;;;;;;;12.38;6.72;;;;;;;9.69;56.24;101718.69;5023260;28;20040;-79
2021/04/24 05:15:16;;;;;;;21.38;6.82;;;;;;;10.11;54.68;101710.91;5023383;28;20064;-81
2021/04/24 05:17:43;;;;;;;12.38;7.38;;;;;;;9.70;56.14;101720.41;5041884;28;20515;-79
2021/04/24 05:20:11;;;;;;;14.65;6.75;;;;;;;10.13;54.61;101721.38;5036287;28;20110;-79
2021/04/24 05:22:37;;;;;;;15.25;7.03;;;;;;;10.17;54.74;101719.47;5053236;28;20751;-81
2021/04/24 05:25:05;;;;;;;17.45;6.95;;;;;;;9.84;55.75;101712.00;5043191;28;20048;-79
2021/04/24 05:27:32;;;;;;;19.88;8.23;;;;;;;10.25;54.07;101727.97;5046219;28;20132;-78
2021/04/24 05:29:59;;;;;;;16.42;7.82;;;;;;;10.47;53.79;101728.81;5026081;28;20052;-77
2021/04/24 05:32:26;;;;;;;15.80;7.70;;;;;;;10.63;53.29;101724.63;5038405;28;20046;-77
2021/04/24 05:34:56;;;;;;;16.50;7.70;;;;;;;10.42;53.63;101724.66;5025269;28;20033;-78
2021/04/24 05:37:23;;;;;;;16.65;7.55;;;;;;;10.09;54.15;101725.06;5020068;28;20461;-78
2021/04/24 05:39:52;;;;;;;24.55;10.73;;;;;;;9.88;55.95;101729.38;5022379;28;20061;-77
2021/04/24 05:42:26;;;;;;;;;;;;;;;10.81;53.04;101732.69;5025737;28;20549;-80
2021/04/24 05:44:53;;;;;;;14.18;7.60;;;;;;;11.29;51.28;101718.28;5000990;28;20397;-77
2021/04/24 05:47:21;;;;;;;20.15;7.53;;;;;;;11.33;51.22;101719.88;5055743;28;20053;-79
2021/04/24 05:49:52;;;;;;;17.10;7.45;;;;;;;11.49;51.09;101725.34;5038563;28;20046;-77
2021/04/24 05:52:19;;;;;;;17.48;8.27;;;;;;;11.73;50.39;101725.97;5026770;28;20118;-78
2021/04/24 05:54:47;;;;;;;15.20;7.35;;;;;;;13.27;46.17;101726.31;5017021;28;20132;-79
2021/04/24 05:57:13;;;;;;;15.60;8.23;;;;;;;13.29;46.25;101726.25;5036696;28;20049;-78
2021/04/24 05:59:40;;;;;;;17.17;7.95;;;;;;;13.62;44.42;101728.88;5002989;28;20059;-79
2021/04/24 06:02:07;;;;;;;13.98;8.18;;;;;;;13.92;44.61;101724.56;5020845;28;20535;-77
2021/04/24 06:04:34;;;;;;;18.42;8.95;;;;;;;14.86;42.07;101733.34;5023597;23;20041;-72
2021/04/24 06:07:01;;;;;;;11.18;7.78;;;;;;;15.24;41.10;101729.31;5027793;28;20049;-73
2021/04/24 06:09:28;;;;;;;19.38;8.32;;;;;;;15.65;40.28;101730.31;5008945;28;20296;-73
2021/04/24 06:11:55;;;;;;;16.23;8.15;;;;;;;15.81;39.73;101730.22;5014889;28;20053;-72
2021/04/24 06:14:21;;;;;;;19.48;8.88;;;;;;;13.72;43.45;101738.03;5006274;28;20122;-73
2021/04/24 06:16:48;;;;;;;17.25;8.30;;;;;;;13.78;44.32;101739.47;5002769;28;20466;-72
2021/04/24 06:19:15;;;;;;;19.30;8.65;;;;;;;15.95;40.19;101734.63;5008676;28;20171;-72
2021/04/24 06:21:42;;;;;;;13.48;8.65;;;;;;;15.94;40.00;101733.78;5010871;28;20125;-73
2021/04/24 06:24:09;;;;;;;15.32;7.00;;;;;;;16.92;37.46;101739.78;5008096;28;20054;-72
2021/04/24 06:26:36;;;;;;;16.55;8.15;;;;;;;16.05;38.97;101732.25;5005468;28;20091;-72
2021/04/24 06:29:02;;;;;;;15.90;8.55;;;;;;;16.24;38.70;101739.88;4990087;28;20056;-72
2021/04/24 06:31:29;;;;;;;15.68;8.10;;;;;;;16.86;37.38;101735.72;4987245;28;20208;-72
2021/04/24 06:33:56;;;;;;;14.32;8.30;;;;;;;17.51;36.29;101734.78;4998123;28;20148;-72
2021/04/24 06:36:23;;;;;;;14.10;7.95;;;;;;;17.32;36.17;101732.56;4998027;28;20301;-72
2021/04/24 06:38:50;;;;;;;15.75;8.02;;;;;;;16.07;38.87;101741.78;4983773;28;20407;-72
2021/04/24 06:41:17;;;;;;;12.32;7.47;;;;;;;16.78;37.70;101735.38;4997015;28;20532;-74
2021/04/24 06:43:43;;;;;;;19.88;8.27;;;;;;;17.49;36.14;101734.06;4986107;28;20100;-72
2021/04/24 06:46:11;;;;;;;13.75;7.80;;;;;;;17.92;35.50;101733.66;5004540;28;20675;-73
2021/04/24 06:48:38;;;;;;;14.95;8.65;;;;;;;18.72;33.67;101729.50;5007991;28;20132;-73
2021/04/24 06:51:04;;;;;;;15.23;7.57;;;;;;;17.92;35.68;101731.00;5003157;28;20070;-72
2021/04/24 06:53:31;;;;;;;13.68;7.53;;;;;;;19.14;33.34;101729.03;5005858;28;20429;-74
2021/04/24 06:55:58;;;;;;;16.65;7.22;;;;;;;18.85;32.92;101720.59;4987023;28;20065;-72
2021/04/24 06:58:25;;;;;;;14.63;7.57;;;;;;;18.57;34.46;101733.31;4987751;28;20248;-72
2021/04/24 07:00:54;;;;;;;12.23;7.32;;;;;;;18.16;34.54;101723.91;5007451;28;20270;-75
2021/04/24 07:03:22;;;;;;;11.02;6.25;;;;;;;17.03;36.52;101731.94;4989565;28;20495;-73
2021/04/24 07:05:49;;;;;;;9.85;5.90;;;;;;;15.63;39.00;101732.19;5007477;28;20209;-72
2021/04/24 07:08:16;;;;;;;12.52;7.43;;;;;;;15.13;40.14;101733.50;4989414;28;20060;-72
2021/04/24 07:10:43;;;;;;;10.80;6.60;;;;;;;16.39;38.48;101726.44;5013623;28;20100;-72
2021/04/24 07:13:10;;;;;;;16.83;6.93;;;;;;;18.39;34.62;101724.03;5008348;28;20133;-72
2021/04/24 07:15:37;;;;;;;15.88;6.47;;;;;;;19.94;31.69;101721.75;4977928;28;20151;-74
2021/04/24 07:18:04;;;;;;;11.07;5.95;;;;;;;20.98;30.21;101722.94;5002867;28;20054;-70
2021/04/24 07:20:31;;;;;;;15.98;6.95;;;;;;;20.04;31.41;101721.88;4991371;28;20054;-71
2021/04/24 07:22:58;;;;;;;12.15;5.93;;;;;;;20.38;30.70;101727.09;5003422;28;20046;-70
2021/04/24 07:25:24;;;;;;;11.25;5.70;;;;;;;17.43;34.60;101723.84;4980328;28;20056;-70
2021/04/24 07:27:51;;;;;;;10.95;5.43;;;;;;;17.98;34.16;101729.75;4991838;28;20093;-71
2021/04/24 07:30:18;;;;;;;10.00;5.95;;;;;;;18.26;33.63;101724.06;5011615;28;20054;-71
2021/04/24 07:32:45;;;;;;;10.65;5.05;;;;;;;17.63;34.30;101725.94;5001914;28;20136;-72
2021/04/24 07:35:12;;;;;;;10.70;5.90;;;;;;;17.83;34.17;101727.22;4990383;28;20047;-72
2021/04/24 07:37:39;;;;;;;8.20;5.55;;;;;;;17.00;35.54;101736.59;5007692;28;20054;-71
2021/04/24 07:40:06;;;;;;;11.15;6.10;;;;;;;18.62;33.78;101728.47;4989988;28;20115;-72
2021/04/24 07:42:33;;;;;;;10.38;5.15;;;;;;;19.18;32.16;101725.13;4994126;28;20053;-71
2021/04/24 07:44:59;;;;;;;8.18;5.07;;;;;;;18.13;32.98;101723.28;5014595;28;20069;-72
2021/04/24 07:47:26;;;;;;;10.18;4.47;;;;;;;20.24;30.56;101715.72;5009417;28;20133;-69
2021/04/24 07:49:53;;;;;;;11.90;5.20;;;;;;;21.18;28.83;101722.09;5009300;28;20080;-71
2021/04/24 07:52:20;;;;;;;15.25;5.57;;;;;;;19.56;30.68;101710.59;4977602;28;20034;-71
2021/04/24 07:54:47;;;;;;;8.52;4.70;;;;;;;20.83;28.79;101734.97;4993004;28;20096;-72
2021/04/24 07:57:15;;;;;;;8.10;4.32;;;;;;;19.10;31.18;101724.91;4992243;28;20133;-73
2021/04/24 07:59:42;;;;;;;8.98;5.05;;;;;;;19.15;31.08;101728.06;5005717;28;20053;-72
2021/04/24 08:02:12;;;;;;;8.90;4.50;;;;;;;19.38;29.97;101727.09;4993315;28;20060;-71
2021/04/24 08:04:39;;;;;;;10.27;4.68;;;;;;;20.10;29.68;101726.69;5011239;28;20137;-73
2021/04/24 08:07:07;;;;;;;9.45;5.57;;;;;;;20.59;28.72;101720.00;5019062;28;20065;-73
2021/04/24 08:09:34;;;;;;;12.50;5.28;;;;;;;17.90;33.39;101724.94;5018002;28;20132;-73
2021/04/24 08:12:01;;;;;;;13.35;6.00;;;;;;;17.07;34.60;101727.25;5003781;28;20089;-72
2021/04/24 08:14:28;;;;;;;9.95;4.97;;;;;;;16.13;37.03;101730.78;4988778;28;20069;-72
2021/04/24 08:17:00;;;;;;;10.07;5.30;;;;;;;18.67;32.71;101717.47;4986775;28;20046;-71
2021/04/24 08:19:27;;;;;;;13.00;5.40;;;;;;;18.54;31.90;101717.53;5004369;28;20125;-71
2021/04/24 08:21:55;;;;;;;10.68;5.28;;;;;;;20.07;29.46;101726.09;4992520;28;20048;-72
2021/04/24 08:24:22;;;;;;;10.85;6.25;;;;;;;19.90;29.56;101724.78;4993158;28;20058;-71
2021/04/24 08:26:49;;;;;;;10.10;4.93;;;;;;;19.68;30.10;101715.00;5007665;28;20054;-71
2021/04/24 08:29:16;;;;;;;10.88;6.05;;;;;;;20.37;29.41;101715.56;5012388;28;20448;-71
2021/04/24 08:31:43;;;;;;;11.95;6.70;;;;;;;20.01;29.60;101721.25;4994043;28;20370;-72
2021/04/24 08:34:12;;;;;;;10.52;5.72;;;;;;;17.32;33.79;101719.25;5011838;28;20403;-70
2021/04/24 08:36:40;;;;;;;9.50;5.38;;;;;;;16.21;35.92;101735.63;4987495;28;20054;-71
2021/04/24 08:39:07;;;;;;;10.10;5.07;;;;;;;14.57;37.20;101735.03;4996726;28;20120;-71
2021/04/24 08:41:35;;;;;;;11.95;5.45;;;;;;;13.56;40.11;101731.88;5007646;28;20061;-71
2021/04/24 08:44:03;;;;;;;13.52;5.60;;;;;;;13.64;40.66;101727.00;5014532;28;20057;-71
2021/04/24 08:46:29;;;;;;;11.60;5.47;;;;;;;12.36;42.87;101731.81;4997752;28;20099;-71
2021/04/24 08:48:57;;;;;;;10.60;5.63;;;;;;;12.10;44.01;101736.56;5017514;28;20119;-72
2021/04/24 08:51:26;;;;;;;8.00;4.47;;;;;;;13.31;41.21;101729.66;4993653;28;20167;-73
2021/04/24 08:53:53;;;;;;;11.20;5.25;;;;;;;13.46;41.35;101733.28;4998684;28;20408;-70
2021/04/24 08:56:25;;;;;;;8.18;3.75;;;;;;;13.73;39.81;101723.00;5012291;28;20046;-70
2021/04/24 08:58:57;;;;;;;10.32;4.55;;;;;;;13.33;40.24;101733.94;4989899;28;20102;-71
2021/04/24 09:01:24;;;;;;;7.53;3.97;;;;;;;13.10;40.79;101742.16;5008672;28;20457;-71
2021/04/24 09:03:51;;;;;;;7.57;3.85;;;;;;;12.87;40.88;101749.50;5010125;28;20138;-70
2021/04/24 09:06:23;;;;;;;9.98;4.40;;;;;;;13.48;39.68;101734.91;5010288;28;20054;-72
2021/04/24 09:08:56;;;;;;;6.25;3.78;;;;;;;12.48;41.96;101739.16;4985566;28;20054;-72
2021/04/24 09:11:24;;;;;;;9.10;4.13;;;;;;;12.52;41.80;101739.81;4989234;28;20061;-70
2021/04/24 09:14:05;;;;;;;8.90;3.50;;;;;;;12.48;41.00;101739.16;4996481;28;20042;-71
2021/04/24 09:16:33;;;;;;;6.35;3.13;;;;;;;12.52;40.00;101745.09;5005311;28;20060;-70
2021/04/24 09:19:00;;;;;;;3.88;2.83;;;;;;;12.74;40.11;101737.81;4999499;28;20250;-71
2021/04/24 09:21:29;;;;;;;6.95;3.78;;;;;;;13.94;39.14;101735.91;5003372;28;20054;-71
2021/04/24 09:23:56;;;;;;;7.32;3.92;;;;;;;13.16;39.50;101729.50;4989605;28;20121;-71
2021/04/24 09:26:25;;;;;;;11.40;3.53;;;;;;;13.36;39.71;101732.91;4991334;28;20050;-73
2021/04/24 09:29:02;;;;;;;6.82;3.35;;;;;;;12.33;41.14;101742.50;5007007;28;20137;-70
2021/04/24 09:31:31;;;;;;;11.60;3.20;;;;;;;11.97;42.33;101743.34;4973100;28;20058;-71
2021/04/24 09:34:00;;;;;;;8.02;3.20;;;;;;;11.55;42.84;101740.88;4993863;28;20034;-71
2021/04/24 09:36:36;;;;;;;11.45;2.75;;;;;;;11.68;41.73;101736.75;4978631;28;20052;-71
2021/04/24 09:39:09;;;;;;;;;;;;;;;11.52;43.10;101735.72;5004730;28;20108;-72
2021/04/24 09:41:41;;;;;;;8.95;3.63;;;;;;;11.86;42.97;101735.94;5005401;28;19921;-71
2021/04/24 09:44:13;;;;;;;8.55;3.30;;;;;;;11.54;43.24;101728.63;5005507;28;20042;-71
2021/04/24 09:46:46;;;;;;;7.28;2.88;;;;;;;12.33;42.35;101731.94;4992217;28;20512;-72
2021/04/24 09:49:15;;;;;;;8.02;2.97;;;;;;;12.50;41.83;101736.41;4990204;28;20050;-71
2021/04/24 09:51:54;;;;;;;6.78;2.83;;;;;;;12.22;41.98;101732.47;5004221;28;20762;-73
2021/04/24 09:54:22;;;;;;;6.88;2.72;;;;;;;11.56;43.27;101732.88;4993138;28;20042;-70
2021/04/24 09:57:04;;;;;;;7.00;3.13;;;;;;;11.72;43.11;101726.91;5012192;28;20466;-73
2021/04/24 09:59:31;;;;;;;9.18;3.67;;;;;;;11.74;43.31;101731.19;5010831;28;20053;-71
2021/04/24 10:02:04;;;;;;;9.10;3.42;;;;;;;11.43;44.54;101733.50;5010087;28;20135;-72
2021/04/24 10:04:31;;;;;;;10.48;3.38;;;;;;;10.74;46.19;101729.44;4983829;28;20201;-73
2021/04/24 10:06:58;;;;;;;12.25;4.10;;;;;;;10.52;46.82;101729.47;5002278;28;20057;-72
2021/04/24 10:09:30;;;;;;;9.80;3.60;;;;;;;10.23;47.91;101740.31;4997828;28;20066;-75
2021/04/24 10:12:00;;;;;;;10.35;3.60;;;;;;;10.26;48.43;101738.41;4993028;28;20502;-74
2021/04/24 10:14:45;;;;;;;9.48;4.38;;;;;;;10.69;48.08;101727.94;5003572;28;20038;-72
2021/04/24 10:17:14;;;;;;;11.02;4.75;;;;;;;10.87;47.82;101732.41;4985528;28;20129;-74
2021/04/24 10:19:41;;;;;;;11.65;4.32;;;;;;;10.75;47.50;101731.16;5009869;28;20419;-73
2021/04/24 10:22:15;;;;;;;8.32;3.80;;;;;;;11.27;44.67;101725.44;4994399;28;20054;-74
2021/04/24 10:24:42;;;;;;;14.95;5.10;;;;;;;11.36;45.35;101730.28;5001722;28;20053;-73
2021/04/24 10:27:11;;;;;;;7.90;3.55;;;;;;;12.02;44.71;101725.53;4989329;28;20053;-73
2021/04/24 10:29:42;;;;;;;13.30;4.50;;;;;;;12.34;43.47;101720.47;5000608;28;20141;-74
2021/04/24 10:32:09;;;;;;;8.95;4.00;;;;;;;11.35;44.00;101726.81;5011443;28;20427;-72
2021/04/24 10:34:37;;;;;;;7.65;3.60;;;;;;;10.89;44.61;101731.41;4974795;28;20147;-73
2021/04/24 10:37:04;;;;;;;9.65;3.53;;;;;;;11.38;44.47;101725.78;4991991;28;20133;-73
2021/04/24 10:39:40;;;;;;;5.90;3.10;;;;;;;10.89;44.80;101715.59;4994873;28;20069;-73
2021/04/24 10:42:16;;;;;;;9.63;3.90;;;;;;;11.13;44.85;101723.41;5015283;28;20078;-73
2021/04/24 10:44:44;;;;;;;6.93;3.28;;;;;;;10.99;45.32;101724.00;4995018;28;20161;-72
2021/04/24 10:47:11;;;;;;;9.63;3.60;;;;;;;11.63;43.98;101726.41;4997819;28;20440;-75
2021/04/24 10:49:56;;;;;;;12.90;4.03;;;;;;;11.69;43.65;101727.03;5013873;28;20064;-73
2021/04/24 10:52:23;;;;;;;8.00;3.55;;;;;;;11.57;43.41;101731.09;5009592;28;20037;-74
2021/04/24 10:55:12;;;;;;;8.43;3.15;;;;;;;12.03;42.66;101731.66;4993585;28;20062;-72
2021/04/24 10:57:58;;;;;;;7.68;3.38;;;;;;;12.10;41.91;101727.78;5016847;28;20061;-73
2021/04/24 11:00:47;;;;;;;9.73;4.43;;;;;;;12.48;40.72;101730.38;5005827;28;20136;-73
2021/04/24 11:03:35;;;;;;;6.63;3.55;;;;;;;11.87;40.67;101731.50;4986067;28;20060;-73
2021/04/24 11:06:22;;;;;;;7.03;3.53;;;;;;;12.22;39.95;101721.06;5007563;28;20560;-73
2021/04/24 11:08:51;;;;;;;6.82;3.28;;;;;;;13.41;37.91;101712.38;5003718;28;20054;-72
2021/04/24 11:11:20;;;;;;;6.43;2.70;;;;;;;13.77;36.33;101713.94;4997807;28;20167;-72
2021/04/24 11:13:51;;;;;;;7.30;3.47;;;;;;;13.02;37.63;101716.16;5007430;28;20053;-73
2021/04/24 11:16:19;;;;;;;5.68;3.20;;;;;;;13.16;37.28;101716.28;5001397;28;20534;-73
2021/04/24 11:22:41;;;;;;;8.18;3.20;;;;;;;12.07;39.64;101722.66;5000802;28;20200;-73
2021/04/24 11:25:17;;;;;;;8.50;3.00;;;;;;;11.20;41.78;101716.06;4997618;28;20486;-73
2021/04/24 11:28:07;;;;;;;7.78;3.65;;;;;;;11.34;41.82;101713.66;5004292;28;20060;-73
2021/04/24 11:30:56;;;;;;;6.07;3.00;;;;;;;11.63;41.37;101715.84;5003058;28;20436;-73
2021/04/24 11:33:50;;;;;;;10.07;3.50;;;;;;;11.36;41.15;101730.28;4998243;28;20534;-74
2021/04/24 11:36:20;;;;;;;10.07;3.65;;;;;;;11.31;40.97;101727.88;4990125;28;20067;-73